Time;durP1;ratioP1;P1;durP2;ratioP2;P2;SDS_P1;SDS_P2;PMS_P1;PMS_P2;Temp;Humidity;BMP_temperature;BMP_pressure;BME280_temperature;BME280_humidity;BME280_pressure;Samples;Min_cycle;Max_cycle;Signal;HPM_P1;HPM_P2
2020/12/06 00:01:57;;;;;;;26.23;15.40;;;7.30;90.60;;;;;;5030459;28;20925;-69
2020/12/06 00:04:22;;;;;;;25.50;15.45;;;7.30;90.70;;;;;;5050893;28;20079;-70
2020/12/06 00:06:48;;;;;;;25.70;15.15;;;7.30;90.80;;;;;;5034465;28;20018;-70
2020/12/06 00:09:16;;;;;;;26.33;16.05;;;7.30;90.90;;;;;;5036972;28;20018;-70
2020/12/06 00:11:41;;;;;;;31.33;16.25;;;7.30;91.00;;;;;;5014724;28;20079;-70
2020/12/06 00:14:07;;;;;;;30.85;17.33;;;7.30;91.00;;;;;;5037027;28;20026;-70
2020/12/06 00:16:32;;;;;;;27.83;17.13;;;7.30;91.10;;;;;;5031212;28;20116;-70
2020/12/06 00:18:58;;;;;;;30.05;17.77;;;7.30;91.20;;;;;;5041037;28;20493;-70
2020/12/06 00:21:23;;;;;;;28.73;17.25;;;7.30;91.30;;;;;;4996776;28;20018;-70
2020/12/06 00:23:49;;;;;;;24.48;16.52;;;7.30;91.40;;;;;;5038403;28;20502;-70
2020/12/06 00:26:26;;;;;;;30.90;17.75;;;7.30;91.70;;;;;;5014553;28;20045;-70
2020/12/06 00:28:52;;;;;;;30.08;16.92;;;7.20;91.70;;;;;;5015747;28;20478;-70
2020/12/06 00:31:18;;;;;;;31.45;17.80;;;7.20;91.70;;;;;;5034066;28;20033;-70
2020/12/06 00:33:44;;;;;;;28.55;18.13;;;7.20;92.00;;;;;;5037252;28;20487;-70
2020/12/06 00:36:11;;;;;;;32.20;19.52;;;7.20;92.40;;;;;;5020050;28;20032;-70
2020/12/06 00:38:37;;;;;;;34.50;19.42;;;7.10;92.80;;;;;;5038927;28;20457;-69
2020/12/06 00:41:03;;;;;;;34.58;20.45;;;7.10;92.80;;;;;;5013922;28;20054;-70
2020/12/06 00:43:28;;;;;;;34.22;19.50;;;7.10;93.10;;;;;;5038754;28;20068;-69
2020/12/06 00:45:54;;;;;;;33.47;18.52;;;7.00;93.30;;;;;;5013812;28;20474;-70
2020/12/06 00:48:19;;;;;;;33.58;19.63;;;7.00;93.30;;;;;;5026768;28;20907;-70
2020/12/06 00:50:45;;;;;;;32.97;20.50;;;7.00;93.20;;;;;;5013730;28;20026;-69
2020/12/06 00:53:10;;;;;;;34.95;20.48;;;7.00;93.60;;;;;;5035809;28;20413;-70
2020/12/06 00:55:35;;;;;;;34.15;20.83;;;7.00;93.90;;;;;;5013809;28;20045;-69
2020/12/06 00:58:01;;;;;;;35.10;21.02;;;7.00;94.20;;;;;;5021071;28;20087;-70
2020/12/06 01:00:27;;;;;;;31.98;20.42;;;6.90;94.30;;;;;;5032512;28;20076;-71
2020/12/06 01:02:52;;;;;;;34.13;21.13;;;6.90;94.40;;;;;;5033582;28;20032;-70
2020/12/06 01:05:18;;;;;;;36.63;20.85;;;6.90;94.50;;;;;;5052913;28;20163;-71
2020/12/06 01:07:43;;;;;;;33.45;20.08;;;6.80;94.50;;;;;;5041697;28;20470;-71
2020/12/06 01:10:11;;;;;;;35.67;21.05;;;6.80;94.80;;;;;;5032406;28;20432;-70
2020/12/06 01:12:37;;;;;;;38.17;21.58;;;6.80;94.70;;;;;;5034554;28;20037;-70
2020/12/06 01:15:10;;;;;;;34.28;21.70;;;6.80;94.60;;;;;;5052898;28;20074;-71
2020/12/06 01:17:36;;;;;;;40.75;22.02;;;6.80;94.80;;;;;;5038537;28;20382;-71
2020/12/06 01:20:06;;;;;;;35.00;21.83;;;6.90;94.70;;;;;;5052592;28;20028;-71
2020/12/06 01:22:31;;;;;;;41.17;20.85;;;6.80;95.40;;;;;;5039003;28;20026;-71
2020/12/06 01:24:57;;;;;;;36.47;20.75;;;6.80;95.10;;;;;;5032124;28;20052;-72
2020/12/06 01:27:22;;;;;;;33.42;20.70;;;6.90;95.00;;;;;;5026494;28;20400;-71
2020/12/06 01:29:48;;;;;;;38.75;21.63;;;6.90;95.30;;;;;;5047372;28;20033;-72
2020/12/06 01:32:14;;;;;;;38.83;21.45;;;6.90;95.40;;;;;;5017540;28;20037;-72
2020/12/06 01:34:39;;;;;;;36.40;21.13;;;6.90;95.60;;;;;;5048690;28;20025;-71
2020/12/06 01:37:05;;;;;;;36.92;20.50;;;6.90;95.30;;;;;;5032531;28;20419;-70
2020/12/06 01:39:30;;;;;;;34.95;20.42;;;6.90;95.20;;;;;;5031081;28;20116;-69
2020/12/06 01:41:57;;;;;;;37.08;21.83;;;7.00;95.30;;;;;;5031724;28;20017;-70
2020/12/06 01:44:24;;;;;;;38.75;22.33;;;6.90;95.30;;;;;;5048086;28;20389;-71
2020/12/06 01:47:10;;;;;;;36.65;21.63;;;6.90;95.50;;;;;;5030554;28;20475;-70
2020/12/06 01:49:57;;;;;;;39.50;22.23;;;6.90;95.50;;;;;;5030138;28;20037;-71
2020/12/06 01:52:24;;;;;;;35.38;21.30;;;6.90;95.50;;;;;;5021748;28;20030;-70
2020/12/06 01:54:50;;;;;;;40.63;22.65;;;6.90;95.30;;;;;;5051615;28;20384;-70
2020/12/06 01:57:16;;;;;;;36.88;21.48;;;7.00;95.40;;;;;;5014292;28;20030;-70
2020/12/06 01:59:42;;;;;;;38.38;21.90;;;7.00;95.50;;;;;;5030196;28;20057;-70
2020/12/06 02:02:07;;;;;;;39.47;22.83;;;7.00;95.60;;;;;;5019165;28;20034;-70
2020/12/06 02:04:33;;;;;;;36.90;21.50;;;6.90;95.70;;;;;;5030029;28;20464;-71
2020/12/06 02:07:00;;;;;;;40.13;22.75;;;6.90;95.60;;;;;;5027796;28;20022;-72
2020/12/06 02:09:28;;;;;;;40.15;22.05;;;6.90;95.60;;;;;;5046839;28;20048;-72
2020/12/06 02:11:55;;;;;;;39.65;21.70;;;7.00;95.70;;;;;;5033183;28;20496;-72
2020/12/06 02:14:21;;;;;;;36.17;20.90;;;6.90;95.60;;;;;;5044921;28;20040;-71
2020/12/06 02:16:46;;;;;;;40.10;22.35;;;6.90;95.50;;;;;;5022065;28;20034;-71
2020/12/06 02:19:14;;;;;;;36.60;20.75;;;7.00;95.60;;;;;;5036940;28;20037;-71
2020/12/06 02:21:41;;;;;;;39.45;22.02;;;7.00;95.50;;;;;;5024604;28;20105;-71
2020/12/06 02:24:11;;;;;;;35.42;21.58;;;7.00;95.50;;;;;;5015958;28;20026;-72
2020/12/06 02:26:38;;;;;;;37.03;20.83;;;7.00;95.60;;;;;;5011936;28;20037;-72
2020/12/06 02:29:04;;;;;;;35.60;20.05;;;7.00;95.60;;;;;;5024860;28;20034;-71
2020/12/06 02:31:29;;;;;;;36.30;20.38;;;6.90;95.50;;;;;;5042315;28;20459;-72
2020/12/06 02:33:55;;;;;;;37.47;21.55;;;7.00;95.50;;;;;;5037423;28;20113;-72
2020/12/06 02:36:20;;;;;;;37.50;21.40;;;7.00;95.50;;;;;;5030964;28;20029;-72
2020/12/06 02:38:49;;;;;;;35.92;20.70;;;7.00;95.50;;;;;;5038707;28;20036;-72
2020/12/06 02:41:14;;;;;;;38.42;21.35;;;7.00;95.50;;;;;;5020301;28;20057;-71
2020/12/06 02:43:40;;;;;;;36.20;20.70;;;7.00;95.50;;;;;;5012726;28;20061;-72
2020/12/06 02:46:05;;;;;;;35.78;21.13;;;7.00;95.60;;;;;;5031732;28;20017;-72
2020/12/06 02:48:31;;;;;;;35.17;20.45;;;7.00;95.60;;;;;;5036569;28;20080;-71
2020/12/06 02:50:56;;;;;;;37.83;21.25;;;7.00;95.60;;;;;;5041200;28;20022;-72
2020/12/06 02:53:22;;;;;;;37.05;21.35;;;7.00;95.70;;;;;;5028983;28;20046;-71
2020/12/06 02:55:47;;;;;;;35.70;21.00;;;7.00;95.70;;;;;;5030569;28;20060;-71
2020/12/06 02:58:13;;;;;;;42.13;21.35;;;6.90;95.70;;;;;;5034234;28;20029;-71
2020/12/06 03:00:38;;;;;;;34.65;19.25;;;7.00;95.70;;;;;;5027139;28;20038;-71
2020/12/06 03:03:04;;;;;;;37.25;20.10;;;7.00;95.70;;;;;;5026182;28;20057;-71
2020/12/06 03:05:29;;;;;;;39.53;20.10;;;6.90;95.70;;;;;;5030926;28;20363;-72
2020/12/06 03:07:55;;;;;;;37.00;20.50;;;7.00;95.80;;;;;;5013223;28;20033;-71
2020/12/06 03:10:20;;;;;;;34.45;19.80;;;7.00;95.70;;;;;;5020394;28;20378;-71
2020/12/06 03:12:45;;;;;;;31.10;19.30;;;7.00;95.80;;;;;;5030484;28;20112;-72
2020/12/06 03:15:11;;;;;;;33.92;19.05;;;7.00;95.80;;;;;;5029582;28;20088;-71
2020/12/06 03:17:36;;;;;;;33.28;19.98;;;6.90;95.80;;;;;;5028756;28;20021;-71
2020/12/06 03:20:02;;;;;;;33.95;19.90;;;6.90;95.90;;;;;;5012845;28;20030;-71
2020/12/06 03:22:32;;;;;;;35.05;19.52;;;6.90;95.90;;;;;;5011695;28;20053;-71
2020/12/06 03:24:59;;;;;;;31.23;18.35;;;6.90;95.90;;;;;;5029083;28;20037;-70
2020/12/06 03:27:24;;;;;;;29.70;18.25;;;6.90;96.00;;;;;;5035263;28;20025;-70
2020/12/06 03:29:49;;;;;;;33.03;18.27;;;6.90;96.10;;;;;;5031139;28;20497;-71
2020/12/06 03:32:15;;;;;;;30.13;17.63;;;6.90;96.10;;;;;;5032803;28;20100;-70
2020/12/06 03:34:40;;;;;;;31.33;17.80;;;7.00;96.10;;;;;;5003635;28;20049;-69
2020/12/06 03:37:06;;;;;;;29.05;17.42;;;7.00;96.30;;;;;;5015120;28;20042;-69
2020/12/06 03:39:52;;;;;;;34.00;17.67;;;7.00;96.20;;;;;;5019138;28;20038;-69
2020/12/06 03:42:37;;;;;;;28.90;16.98;;;7.00;96.20;;;;;;5014380;28;20401;-69
2020/12/06 03:45:23;;;;;;;30.58;17.10;;;7.00;96.30;;;;;;5051352;28;20044;-69
2020/12/06 03:48:09;;;;;;;30.23;18.25;;;7.00;96.30;;;;;;5016140;28;20037;-69
2020/12/06 03:50:55;;;;;;;28.20;17.20;;;7.00;96.40;;;;;;5037148;28;20037;-69
2020/12/06 03:53:20;;;;;;;31.08;17.17;;;7.00;96.40;;;;;;5024561;28;20048;-69
2020/12/06 03:55:46;;;;;;;30.45;17.25;;;7.10;96.50;;;;;;5033689;28;20025;-69
2020/12/06 03:58:11;;;;;;;26.33;15.50;;;7.10;96.60;;;;;;5016836;28;20026;-69
2020/12/06 04:00:37;;;;;;;31.00;16.95;;;7.10;96.50;;;;;;5050217;28;20037;-69
2020/12/06 04:03:02;;;;;;;27.55;16.13;;;7.20;96.50;;;;;;5032778;28;20608;-69
2020/12/06 04:05:28;;;;;;;30.20;16.38;;;7.20;96.50;;;;;;5053537;28;20082;-69
2020/12/06 04:07:53;;;;;;;29.17;16.27;;;7.30;96.50;;;;;;5021507;28;20022;-69
2020/12/06 04:10:19;;;;;;;28.73;16.27;;;7.30;96.60;;;;;;5051441;28;20041;-69
2020/12/06 04:12:45;;;;;;;26.40;16.13;;;7.30;96.50;;;;;;5025582;28;20034;-69
2020/12/06 04:15:11;;;;;;;25.23;15.20;;;7.30;96.50;;;;;;5030806;28;20092;-69
2020/12/06 04:17:37;;;;;;;27.42;16.67;;;7.30;96.80;;;;;;5021658;28;20565;-69
2020/12/06 04:20:04;;;;;;;29.33;16.83;;;7.40;96.60;;;;;;5044972;28;20037;-69
2020/12/06 04:22:29;;;;;;;28.40;16.42;;;7.30;96.60;;;;;;5024209;28;20026;-69
2020/12/06 04:24:55;;;;;;;28.27;16.13;;;7.40;96.50;;;;;;5042294;28;20033;-68
2020/12/06 04:27:20;;;;;;;28.02;16.27;;;7.40;96.50;;;;;;5027230;28;20117;-69
2020/12/06 04:29:46;;;;;;;27.67;16.85;;;7.40;96.40;;;;;;5030727;28;20120;-69
2020/12/06 04:32:11;;;;;;;26.30;16.25;;;7.40;96.30;;;;;;5032126;28;20021;-69
2020/12/06 04:34:39;;;;;;;28.98;15.98;;;7.40;96.40;;;;;;5045140;28;20630;-69
2020/12/06 04:37:06;;;;;;;27.15;16.48;;;7.40;96.40;;;;;;5033593;28;20112;-69
2020/12/06 04:39:32;;;;;;;29.45;15.68;;;7.30;96.40;;;;;;5036125;28;20075;-69
2020/12/06 04:42:00;;;;;;;27.17;15.80;;;7.30;96.40;;;;;;5045508;28;20497;-69
2020/12/06 04:44:26;;;;;;;29.35;16.50;;;7.30;96.50;;;;;;5028200;28;20036;-69
2020/12/06 04:47:01;;;;;;;28.40;17.00;;;7.30;96.60;;;;;;5014116;28;20108;-69
2020/12/06 04:49:43;;;;;;;31.00;16.95;;;7.30;96.70;;;;;;5028848;28;20026;-69
2020/12/06 04:52:16;;;;;;;30.58;17.10;;;7.30;96.70;;;;;;5033696;28;20026;-69
2020/12/06 04:54:43;;;;;;;28.67;16.77;;;7.20;96.70;;;;;;5032558;28;20045;-69
2020/12/06 04:57:11;;;;;;;27.67;16.30;;;7.20;97.00;;;;;;5033567;28;20060;-69
2020/12/06 04:59:41;;;;;;;29.67;16.95;;;7.20;96.80;;;;;;5031650;28;20060;-69
2020/12/06 05:02:09;;;;;;;28.05;16.27;;;7.20;96.80;;;;;;5018363;28;20084;-68
2020/12/06 05:04:40;;;;;;;25.00;14.98;;;7.20;96.80;;;;;;5030229;28;20033;-69
2020/12/06 05:07:06;;;;;;;26.85;15.25;;;7.20;96.90;;;;;;5013606;28;20022;-68
2020/12/06 05:09:35;;;;;;;29.45;17.15;;;7.20;96.90;;;;;;5029523;28;20631;-69
2020/12/06 05:12:02;;;;;;;28.23;16.65;;;7.20;96.90;;;;;;5012995;28;20032;-69
2020/12/06 05:14:28;;;;;;;28.40;15.82;;;7.30;97.10;;;;;;5032678;28;20029;-69
2020/12/06 05:16:56;;;;;;;26.02;15.63;;;7.20;96.90;;;;;;5013693;28;20026;-69
2020/12/06 05:19:24;;;;;;;28.10;16.80;;;7.20;96.90;;;;;;5020031;28;20098;-69
2020/12/06 05:21:50;;;;;;;25.25;16.77;;;7.30;97.10;;;;;;5014001;28;20498;-69
2020/12/06 05:24:16;;;;;;;26.45;15.80;;;7.30;97.00;;;;;;5020168;28;20061;-69
2020/12/06 05:26:41;;;;;;;24.90;15.25;;;7.30;97.00;;;;;;5030699;28;20037;-69
2020/12/06 05:29:06;;;;;;;28.00;15.77;;;7.30;97.00;;;;;;5035950;28;20477;-69
2020/12/06 05:31:32;;;;;;;25.55;16.00;;;7.30;97.00;;;;;;5023476;28;20041;-69
2020/12/06 05:34:19;;;;;;;29.95;15.25;;;7.30;97.00;;;;;;5019340;28;20496;-69
2020/12/06 05:36:56;;;;;;;27.35;15.93;;;7.40;97.00;;;;;;5015230;28;20041;-70
2020/12/06 05:39:22;;;;;;;29.40;16.35;;;7.40;97.00;;;;;;5018798;28;20500;-69
2020/12/06 05:41:48;;;;;;;26.95;14.93;;;7.40;97.00;;;;;;5029270;28;20030;-69
2020/12/06 05:44:19;;;;;;;28.55;16.13;;;7.30;97.00;;;;;;5036523;28;20039;-69
2020/12/06 05:46:45;;;;;;;30.35;16.40;;;7.40;97.00;;;;;;5023398;28;20385;-69
2020/12/06 05:49:10;;;;;;;26.27;15.52;;;7.40;97.10;;;;;;5017527;28;20033;-69
2020/12/06 05:51:39;;;;;;;29.58;17.67;;;7.40;97.00;;;;;;5020987;28;20482;-69
2020/12/06 05:54:06;;;;;;;30.23;16.08;;;7.40;97.10;;;;;;5019041;28;20045;-69
2020/12/06 05:56:32;;;;;;;28.10;16.33;;;7.40;97.10;;;;;;5031297;28;20482;-70
2020/12/06 05:58:57;;;;;;;28.98;17.38;;;7.30;97.10;;;;;;5032306;28;20322;-70
2020/12/06 06:01:22;;;;;;;26.45;15.90;;;7.30;97.10;;;;;;5032986;28;20029;-72
2020/12/06 06:03:53;;;;;;;26.52;15.43;;;7.40;97.10;;;;;;5029970;28;20467;-72
2020/12/06 06:06:35;;;;;;;25.13;15.68;;;7.30;97.10;;;;;;5024014;28;20026;-72
2020/12/06 06:09:02;;;;;;;23.35;15.15;;;7.30;97.10;;;;;;5014690;28;20022;-72
2020/12/06 06:11:28;;;;;;;27.33;15.90;;;7.40;97.10;;;;;;5045711;28;20036;-72
2020/12/06 06:14:02;;;;;;;26.05;15.65;;;7.40;97.20;;;;;;5038485;28;20034;-72
2020/12/06 06:16:30;;;;;;;24.38;15.35;;;7.30;97.20;;;;;;5032553;28;20556;-72
2020/12/06 06:18:57;;;;;;;28.73;15.98;;;7.30;97.20;;;;;;5008850;28;20137;-72
2020/12/06 06:21:45;;;;;;;26.52;16.02;;;7.40;97.30;;;;;;5014339;28;20525;-72
2020/12/06 06:24:22;;;;;;;26.77;16.55;;;7.40;97.30;;;;;;5028791;28;20378;-72
2020/12/06 06:26:49;;;;;;;28.02;15.65;;;7.40;97.20;;;;;;5030371;28;20698;-72
2020/12/06 06:29:17;;;;;;;27.75;16.33;;;7.40;97.20;;;;;;5030465;28;20040;-72
2020/12/06 06:31:47;;;;;;;27.83;15.27;;;7.40;97.30;;;;;;5031888;28;20063;-72
2020/12/06 06:34:13;;;;;;;23.38;14.68;;;7.40;97.30;;;;;;5029594;28;20052;-72
2020/12/06 06:36:42;;;;;;;24.40;14.48;;;7.40;97.30;;;;;;5031391;28;20528;-72
2020/12/06 06:39:08;;;;;;;22.17;14.38;;;7.40;97.30;;;;;;5029693;28;20049;-73
2020/12/06 06:41:35;;;;;;;24.13;14.98;;;7.50;97.30;;;;;;5031251;28;20064;-70
2020/12/06 06:44:02;;;;;;;26.02;15.30;;;7.50;97.50;;;;;;5030764;28;20101;-72
2020/12/06 06:46:35;;;;;;;27.88;15.75;;;7.50;97.40;;;;;;5033466;28;20029;-69
2020/12/06 06:49:09;;;;;;;24.90;15.05;;;7.50;97.40;;;;;;5030270;28;20040;-69
2020/12/06 06:51:35;;;;;;;27.27;15.65;;;7.50;97.40;;;;;;5025928;28;20033;-70
2020/12/06 06:54:05;;;;;;;27.42;16.48;;;7.60;97.40;;;;;;5011507;28;20049;-70
2020/12/06 06:56:36;;;;;;;27.15;15.80;;;7.60;97.40;;;;;;5051543;28;20025;-70
2020/12/06 06:59:03;;;;;;;25.58;15.32;;;7.60;97.40;;;;;;5014160;28;20044;-70
2020/12/06 07:01:28;;;;;;;25.17;15.15;;;7.60;97.50;;;;;;5036410;28;20041;-70
2020/12/06 07:03:54;;;;;;;27.00;14.60;;;7.60;97.40;;;;;;5036458;28;20489;-70
2020/12/06 07:06:49;;;;;;;23.85;14.45;;;7.60;97.50;;;;;;5057322;28;20021;-70
2020/12/06 07:09:35;;;;;;;26.02;15.07;;;7.60;97.50;;;;;;5024263;28;20033;-70
2020/12/06 07:12:01;;;;;;;23.75;14.80;;;7.70;97.60;;;;;;5036210;28;20037;-70
2020/12/06 07:14:28;;;;;;;25.90;14.80;;;7.60;97.60;;;;;;5019249;28;20363;-70
2020/12/06 07:16:56;;;;;;;25.33;13.18;;;7.70;97.70;;;;;;5034619;28;20029;-70
2020/12/06 07:19:21;;;;;;;22.55;13.77;;;7.70;97.70;;;;;;5018344;28;20077;-70
2020/12/06 07:21:48;;;;;;;24.35;14.15;;;7.70;97.70;;;;;;5035481;28;20530;-70
2020/12/06 07:24:15;;;;;;;21.33;13.68;;;7.80;97.70;;;;;;5032478;28;20057;-70
2020/12/06 07:27:01;;;;;;;24.55;13.70;;;7.80;97.70;;;;;;5052251;28;20532;-70
2020/12/06 07:29:26;;;;;;;23.70;13.80;;;7.90;97.70;;;;;;5039937;28;20020;-70
2020/12/06 07:31:54;;;;;;;21.77;13.35;;;7.90;97.70;;;;;;5048062;28;20069;-70
2020/12/06 07:34:19;;;;;;;22.55;13.95;;;7.90;97.80;;;;;;5020962;28;20060;-70
2020/12/06 07:36:46;;;;;;;21.63;13.52;;;7.90;97.70;;;;;;5033145;28;20449;-70
2020/12/06 07:39:16;;;;;;;22.50;12.88;;;8.00;97.70;;;;;;5017946;28;20041;-70
2020/12/06 07:41:46;;;;;;;22.25;13.25;;;8.00;97.80;;;;;;5046627;28;20025;-70
2020/12/06 07:44:12;;;;;;;22.63;13.60;;;8.00;97.60;;;;;;5018477;28;20113;-70
2020/12/06 07:46:38;;;;;;;22.95;13.95;;;8.10;97.70;;;;;;5035100;28;20109;-71
2020/12/06 07:49:04;;;;;;;20.67;12.40;;;8.10;97.70;;;;;;5018021;28;20453;-71
2020/12/06 07:51:29;;;;;;;18.63;11.75;;;8.10;97.70;;;;;;5049577;28;20032;-70
2020/12/06 07:53:56;;;;;;;21.20;12.50;;;8.20;97.70;;;;;;5018679;28;20068;-71
2020/12/06 07:56:23;;;;;;;18.52;11.40;;;8.20;97.60;;;;;;5026829;28;20164;-70
2020/12/06 07:58:59;;;;;;;19.65;11.20;;;8.20;97.60;;;;;;5017492;28;20038;-71
2020/12/06 08:01:26;;;;;;;19.70;12.18;;;8.30;97.60;;;;;;5022638;28;20036;-71
2020/12/06 08:03:54;;;;;;;21.33;12.75;;;8.40;97.50;;;;;;5036604;28;20025;-71
2020/12/06 08:06:21;;;;;;;19.73;12.25;;;8.40;97.50;;;;;;5028562;28;20409;-71
2020/12/06 08:08:49;;;;;;;17.23;11.40;;;8.40;97.40;;;;;;5017720;28;20161;-71
2020/12/06 08:11:17;;;;;;;21.30;12.77;;;8.50;97.40;;;;;;5019824;28;20497;-71
2020/12/06 08:13:49;;;;;;;20.63;12.50;;;8.50;97.30;;;;;;5014411;28;20476;-71
2020/12/06 08:16:14;;;;;;;21.77;11.93;;;8.50;97.30;;;;;;5015807;28;20482;-71
2020/12/06 08:18:40;;;;;;;18.00;11.15;;;8.60;97.30;;;;;;5018075;28;20041;-71
2020/12/06 08:21:05;;;;;;;20.30;12.00;;;8.60;97.30;;;;;;5025989;28;20052;-71
2020/12/06 08:23:40;;;;;;;23.73;13.13;;;8.60;97.20;;;;;;5034475;28;20492;-71
2020/12/06 08:26:11;;;;;;;19.10;11.75;;;8.70;97.20;;;;;;5021500;28;20391;-71
2020/12/06 08:28:37;;;;;;;18.73;11.75;;;8.70;97.20;;;;;;5014440;28;20037;-71
2020/12/06 08:31:18;;;;;;;20.48;11.18;;;8.70;97.10;;;;;;5031579;28;20501;-72
2020/12/06 08:33:44;;;;;;;19.88;12.55;;;8.80;97.10;;;;;;5034012;28;20061;-72
2020/12/06 08:36:10;;;;;;;20.00;11.63;;;8.80;97.10;;;;;;5019490;28;20526;-77
2020/12/06 08:38:37;;;;;;;20.25;11.98;;;8.80;97.00;;;;;;5014010;28;20042;-74
2020/12/06 08:41:25;;;;;;;19.55;11.85;;;8.80;97.00;;;;;;5038892;28;20044;-77
2020/12/06 08:44:11;;;;;;;18.88;11.27;;;8.90;96.90;;;;;;5032612;28;20108;-76
2020/12/06 08:46:57;;;;;;;17.38;11.85;;;8.90;96.90;;;;;;5030932;28;20232;-74
2020/12/06 08:49:25;;;;;;;19.35;11.10;;;9.00;96.80;;;;;;5030424;28;20125;-74
2020/12/06 08:51:52;;;;;;;16.77;10.93;;;9.00;96.80;;;;;;5031945;28;20581;-74
2020/12/06 08:54:35;;;;;;;18.38;11.57;;;9.00;96.90;;;;;;5013443;28;20045;-69
2020/12/06 08:57:10;;;;;;;17.17;10.82;;;9.10;96.70;;;;;;5030497;28;20030;-74
2020/12/06 08:59:40;;;;;;;18.38;11.73;;;9.10;96.90;;;;;;5014401;28;20042;-74
2020/12/06 09:02:06;;;;;;;17.75;11.15;;;9.10;96.60;;;;;;5045456;28;20025;-71
2020/12/06 09:04:36;;;;;;;18.23;11.30;;;9.10;96.60;;;;;;5013508;28;20036;-73
2020/12/06 09:07:05;;;;;;;17.27;10.73;;;9.20;96.60;;;;;;5013275;28;20026;-71
2020/12/06 09:09:31;;;;;;;17.70;10.43;;;9.20;96.50;;;;;;5013210;28;20034;-73
2020/12/06 09:11:57;;;;;;;18.75;10.85;;;9.20;96.50;;;;;;5032064;28;20030;-77
2020/12/06 09:14:23;;;;;;;16.10;10.63;;;9.30;96.50;;;;;;5032309;28;20553;-74
2020/12/06 09:16:49;;;;;;;18.70;12.18;;;9.30;96.40;;;;;;5050227;28;20030;-71
2020/12/06 09:19:14;;;;;;;19.23;11.20;;;9.30;96.40;;;;;;5022661;28;20496;-71
2020/12/06 09:21:40;;;;;;;17.05;10.50;;;9.30;96.40;;;;;;5047953;28;20033;-79
2020/12/06 09:24:06;;;;;;;17.65;11.02;;;9.40;96.30;;;;;;5034522;28;20033;-70
2020/12/06 09:26:31;;;;;;;17.88;10.68;;;9.40;96.30;;;;;;5047471;28;20119;-71
2020/12/06 09:28:57;;;;;;;16.65;10.20;;;9.40;96.30;;;;;;5025881;28;20381;-70
2020/12/06 09:31:23;;;;;;;20.67;11.32;;;9.50;96.30;;;;;;5032886;28;20486;-71
2020/12/06 09:33:49;;;;;;;21.85;12.05;;;9.50;96.20;;;;;;5039491;28;20159;-70
2020/12/06 09:36:15;;;;;;;17.30;10.75;;;9.50;96.20;;;;;;5046478;28;20029;-70
2020/12/06 09:38:40;;;;;;;17.13;11.18;;;9.60;96.10;;;;;;5033551;28;20171;-72
2020/12/06 09:41:07;;;;;;;18.50;10.85;;;9.60;96.00;;;;;;5029104;28;20488;-69
2020/12/06 09:43:32;;;;;;;16.88;10.52;;;9.60;96.00;;;;;;5029816;28;20524;-70
2020/12/06 09:45:58;;;;;;;15.13;10.00;;;9.70;96.00;;;;;;5024760;28;20108;-69
2020/12/06 09:48:29;;;;;;;18.15;11.00;;;9.70;95.90;;;;;;5020369;28;20038;-70
2020/12/06 09:50:54;;;;;;;18.80;10.63;;;9.70;95.90;;;;;;5016395;28;20462;-70
2020/12/06 09:53:20;;;;;;;16.88;10.43;;;9.70;95.90;;;;;;5013890;28;20050;-70
2020/12/06 09:55:46;;;;;;;19.77;10.35;;;9.80;95.90;;;;;;5025819;28;20481;-70
2020/12/06 09:58:11;;;;;;;16.50;10.57;;;9.80;95.90;;;;;;5031149;28;20052;-70
2020/12/06 10:00:37;;;;;;;16.50;10.23;;;9.90;95.80;;;;;;5028203;28;20026;-70
2020/12/06 10:03:02;;;;;;;16.92;10.73;;;9.90;95.80;;;;;;5025972;28;20056;-70
2020/12/06 10:05:28;;;;;;;14.82;9.70;;;9.90;95.70;;;;;;5029438;28;20030;-69
2020/12/06 10:07:53;;;;;;;16.20;9.55;;;10.00;95.70;;;;;;5013339;28;20125;-69
2020/12/06 10:10:19;;;;;;;16.48;10.30;;;10.00;95.70;;;;;;5029626;28;20021;-71
2020/12/06 10:12:44;;;;;;;16.10;10.55;;;10.10;95.60;;;;;;5028989;28;20041;-70
2020/12/06 10:15:10;;;;;;;14.98;9.68;;;10.10;95.60;;;;;;5031704;28;20021;-70
2020/12/06 10:17:38;;;;;;;14.40;9.10;;;10.20;95.50;;;;;;5020710;28;20041;-69
2020/12/06 10:20:10;;;;;;;16.03;9.33;;;10.30;95.50;;;;;;5031131;28;20103;-69
2020/12/06 10:22:35;;;;;;;16.50;9.68;;;10.40;95.40;;;;;;5032021;28;20265;-70
2020/12/06 10:25:01;;;;;;;15.10;10.30;;;10.40;95.40;;;;;;5031230;28;20436;-69
2020/12/06 10:27:26;;;;;;;18.30;11.60;;;10.40;95.30;;;;;;5030041;28;20478;-69
2020/12/06 10:29:52;;;;;;;18.00;9.77;;;10.50;95.30;;;;;;5017906;28;20118;-69
2020/12/06 10:32:18;;;;;;;15.50;9.63;;;10.50;95.20;;;;;;4994512;28;20482;-69
2020/12/06 10:34:43;;;;;;;14.52;8.98;;;10.60;95.10;;;;;;5022693;28;20040;-69
2020/12/06 10:37:09;;;;;;;15.73;9.45;;;10.70;95.00;;;;;;5031738;28;20025;-69
2020/12/06 10:39:34;;;;;;;14.35;8.43;;;10.70;95.00;;;;;;5031455;28;20407;-69
2020/12/06 10:42:00;;;;;;;15.05;9.27;;;10.80;94.90;;;;;;5039552;28;20025;-69
2020/12/06 10:44:28;;;;;;;15.95;8.95;;;10.90;94.90;;;;;;5031577;28;20087;-69
2020/12/06 10:46:53;;;;;;;16.42;9.07;;;10.90;94.80;;;;;;5012124;28;20033;-69
2020/12/06 10:49:20;;;;;;;15.80;9.63;;;11.00;94.60;;;;;;5030191;28;20494;-72
2020/12/06 10:51:47;;;;;;;14.48;8.85;;;11.10;94.40;;;;;;5030596;28;20037;-71
2020/12/06 10:54:14;;;;;;;11.70;8.38;;;11.10;94.40;;;;;;5031076;28;20053;-71
2020/12/06 10:56:40;;;;;;;12.02;8.18;;;11.20;94.30;;;;;;5030974;28;20022;-71
2020/12/06 10:59:06;;;;;;;12.80;8.80;;;11.30;94.20;;;;;;5030891;28;20520;-72
2020/12/06 11:01:33;;;;;;;16.60;9.43;;;11.30;94.10;;;;;;5029660;28;20041;-71
2020/12/06 11:04:04;;;;;;;13.35;9.30;;;11.40;94.00;;;;;;5011866;28;20026;-71
2020/12/06 11:06:30;;;;;;;14.50;9.85;;;11.40;93.90;;;;;;5009758;28;20097;-71
2020/12/06 11:08:56;;;;;;;13.88;8.70;;;11.50;93.80;;;;;;5030777;28;20036;-71
2020/12/06 11:11:25;;;;;;;14.20;8.65;;;11.50;93.80;;;;;;5031060;28;20040;-71
2020/12/06 11:13:51;;;;;;;13.43;8.65;;;11.60;93.70;;;;;;5030259;28;20030;-71
2020/12/06 11:16:18;;;;;;;12.95;8.88;;;11.60;93.90;;;;;;5025896;28;20022;-71
2020/12/06 11:18:44;;;;;;;14.00;8.90;;;11.70;93.50;;;;;;5011770;28;20034;-71
2020/12/06 11:21:10;;;;;;;12.30;8.23;;;11.70;93.50;;;;;;5028716;28;20100;-71
2020/12/06 11:23:36;;;;;;;13.40;8.68;;;11.70;93.40;;;;;;5031161;28;20120;-71
2020/12/06 11:26:02;;;;;;;13.75;8.73;;;11.80;93.30;;;;;;5029011;28;20084;-71
2020/12/06 11:28:27;;;;;;;14.18;9.68;;;11.90;93.20;;;;;;5031247;28;20025;-72
2020/12/06 11:30:53;;;;;;;14.63;8.77;;;11.90;93.10;;;;;;5030267;28;20022;-71
2020/12/06 11:33:18;;;;;;;12.38;8.23;;;12.00;93.00;;;;;;5029750;28;20436;-71
2020/12/06 11:35:45;;;;;;;14.35;8.60;;;12.00;92.90;;;;;;5029852;28;20112;-71
2020/12/06 11:38:20;;;;;;;13.68;8.52;;;12.00;92.90;;;;;;5026609;28;20080;-71
2020/12/06 11:40:45;;;;;;;14.05;8.65;;;12.10;92.70;;;;;;5031033;28;20425;-72
2020/12/06 11:43:11;;;;;;;13.18;8.45;;;12.10;92.70;;;;;;5031061;28;20112;-71
2020/12/06 11:45:36;;;;;;;12.45;8.27;;;12.10;92.50;;;;;;5030930;28;20017;-70
2020/12/06 11:48:02;;;;;;;13.77;9.43;;;12.20;92.50;;;;;;5033108;28;20108;-74
2020/12/06 11:50:29;;;;;;;13.00;8.65;;;12.20;92.50;;;;;;5032867;28;20041;-71
2020/12/06 11:52:54;;;;;;;12.52;8.35;;;12.20;92.30;;;;;;5031185;28;20124;-70
2020/12/06 11:55:20;;;;;;;13.20;8.40;;;12.20;92.30;;;;;;5025330;28;20021;-71
2020/12/06 11:57:45;;;;;;;12.70;7.95;;;12.30;92.10;;;;;;5034209;28;20021;-71
2020/12/06 12:00:11;;;;;;;12.40;8.57;;;12.30;92.20;;;;;;5028939;28;20044;-72
2020/12/06 12:02:36;;;;;;;13.18;8.07;;;12.30;92.10;;;;;;5042087;28;20043;-71
2020/12/06 12:05:02;;;;;;;17.33;9.20;;;12.40;92.00;;;;;;5049630;28;20076;-71
2020/12/06 12:07:27;;;;;;;13.50;7.97;;;12.40;91.90;;;;;;5039133;28;20047;-70
2020/12/06 12:09:53;;;;;;;10.05;7.72;;;12.50;91.90;;;;;;5035053;28;20113;-70
2020/12/06 12:12:18;;;;;;;12.13;8.27;;;12.50;91.80;;;;;;5034246;28;20028;-71
2020/12/06 12:14:44;;;;;;;11.65;8.23;;;12.50;91.80;;;;;;5037350;28;20022;-71
2020/12/06 12:17:10;;;;;;;9.32;7.05;;;12.50;91.70;;;;;;5047808;28;20025;-71
2020/12/06 12:19:35;;;;;;;13.07;8.05;;;12.60;91.70;;;;;;5043068;28;20036;-71
2020/12/06 12:22:01;;;;;;;14.13;8.93;;;12.60;91.60;;;;;;5034007;28;20500;-71
2020/12/06 12:24:27;;;;;;;13.02;8.18;;;12.60;91.60;;;;;;5031228;28;20029;-71
2020/12/06 12:26:57;;;;;;;15.10;8.15;;;12.60;91.50;;;;;;5018120;28;20021;-71
2020/12/06 12:29:22;;;;;;;12.45;8.02;;;12.60;91.30;;;;;;5032803;28;20040;-71
2020/12/06 12:31:48;;;;;;;14.45;9.27;;;12.60;91.40;;;;;;5032647;28;20025;-72
2020/12/06 12:34:13;;;;;;;12.90;8.10;;;12.60;91.30;;;;;;5012889;28;20375;-72
2020/12/06 12:36:43;;;;;;;14.93;8.50;;;12.70;91.20;;;;;;5026562;28;20018;-71
2020/12/06 12:39:13;;;;;;;11.77;8.38;;;12.70;91.20;;;;;;5030296;28;20036;-71